LZIB Airport Information

Runway Information
Runway 04 Length 9515 ft width 197 ft
Elevation 436 ft Threshold 0 ft Heading 44
Runway 22 Length 9515 ft Width 197 ft
Elevation 430 ft Threshold 0 ft Heading 224
Runway 13 Length 10466 ft width 148 ft
Elevation 433 ft Threshold 0 ft Heading 134
Runway 31 Length 10466 ft Width 148 ft
Elevation 434 ft Threshold 777 ft Heading 314
Airport Frequencies
Type APP Name APP Frequency 120.9 MHZ
Type ATIS Name ATIS Frequency 128.65 MHZ
Type TWR Name TWR Frequency 118.3 MHZ
Airport Navaids
Type VOR-DME Name Janovce Frequency 110800 KHZ
Type NDB Name Stefanik South Frequency 330 KHZ
Type NDB Name Stefanik North Frequency 391 KHZ
Airport Weather Information & NOTAM
ADDS - METARS form results

(0652 UTC 22 April 2018)
 
METAR text: LZIB 220630Z VRB02KT CAVOK 17/10 Q1016 NOSIG
Conditions at: LZIB (BRATISLAVA IVANK, SK) observed 0630 UTC 22 April 2018
Temperature: 17.0°C (63°F)
Dewpoint: 10.0°C (50°F) [RH = 63%]
Pressure (altimeter): 30.00 inches Hg (1016.0 mb)
Winds: variable direction winds at 2 MPH (2 knots; 1.0 m/s)
Visibility: 6 or more miles (10+ km)
Ceiling: ceiling and visibility are OK
Clouds: unknown
Weather: no significant weather observed at this time

METAR text: LZIB 220616Z VRB02KT CAVOK 17/11 Q1016
Conditions at: LZIB (BRATISLAVA IVANK, SK) observed 0616 UTC 22 April 2018
Temperature: 17.0°C (63°F)
Dewpoint: 11.0°C (52°F) [RH = 68%]
Pressure (altimeter): 30.00 inches Hg (1016.0 mb)
Winds: variable direction winds at 2 MPH (2 knots; 1.0 m/s)
Visibility: 6 or more miles (10+ km)
Ceiling: ceiling and visibility are OK
Clouds: unknown
Weather: no significant weather observed at this time

METAR text: LZIB 220600Z 21002KT CAVOK 15/11 Q1016 NOSIG
Conditions at: LZIB (BRATISLAVA IVANK, SK) observed 0600 UTC 22 April 2018
Temperature: 15.0°C (59°F)
Dewpoint: 11.0°C (52°F) [RH = 77%]
Pressure (altimeter): 30.00 inches Hg (1016.0 mb)
Winds: from the SSW (210 degrees) at 2 MPH (2 knots; 1.0 m/s)
Visibility: 6 or more miles (10+ km)
Ceiling: ceiling and visibility are OK
Clouds: unknown
Weather: no significant weather observed at this time